Time;durP1;ratioP1;P1;durP2;ratioP2;P2;SDS_P1;SDS_P2;PMS_P1;PMS_P2;Temp;Humidity;BMP_temperature;BMP_pressure;BME280_temperature;BME280_humidity;BME280_pressure;Samples;Min_cycle;Max_cycle;Signal;HPM_P1;HPM_P2
2023/07/29 00:01:25;;;;;;;8.90;7.70;;;17.80;99.90;;;;;;5124329;28;20512;-48
2023/07/29 00:03:56;;;;;;;8.97;7.43;;;17.80;99.90;;;;;;5123505;28;20202;-47
2023/07/29 00:06:27;;;;;;;9.30;7.73;;;17.80;99.90;;;;;;5113135;28;20206;-51
2023/07/29 00:08:57;;;;;;;10.83;9.60;;;17.80;99.90;;;;;;5122208;28;20183;-47
2023/07/29 00:11:28;;;;;;;9.80;8.50;;;17.70;99.90;;;;;;5123015;28;20191;-47
2023/07/29 00:13:59;;;;;;;11.27;9.97;;;17.70;99.90;;;;;;5118314;28;20191;-48
2023/07/29 00:16:30;;;;;;;13.87;9.27;;;17.70;99.90;;;;;;5129878;28;20218;-48
2023/07/29 00:19:00;;;;;;;10.50;8.87;;;17.60;99.90;;;;;;5120962;28;20458;-46
2023/07/29 00:21:31;;;;;;;11.67;9.33;;;17.60;99.90;;;;;;5123083;28;20278;-48
2023/07/29 00:24:01;;;;;;;11.10;10.10;;;17.60;99.90;;;;;;5121810;28;20630;-48
2023/07/29 00:26:32;;;;;;;15.13;10.00;;;17.60;99.90;;;;;;5118105;28;20198;-48
2023/07/29 00:29:03;;;;;;;11.63;9.90;;;17.60;99.90;;;;;;5118228;28;20346;-48
2023/07/29 00:31:33;;;;;;;12.43;10.00;;;17.60;99.90;;;;;;5113065;28;20195;-47
2023/07/29 00:34:04;;;;;;;15.27;9.80;;;17.50;99.90;;;;;;5124079;28;20210;-48
2023/07/29 00:36:34;;;;;;;11.43;9.63;;;17.50;99.90;;;;;;5119803;28;20206;-47
2023/07/29 00:39:05;;;;;;;9.90;8.97;;;17.50;99.90;;;;;;5128297;28;20205;-48
2023/07/29 00:41:36;;;;;;;14.67;10.50;;;17.50;99.90;;;;;;5121244;28;20229;-47
2023/07/29 00:44:06;;;;;;;18.93;10.73;;;17.40;99.90;;;;;;5110401;28;20187;-49
2023/07/29 00:46:39;;;;;;;11.57;9.47;;;17.40;99.90;;;;;;5112607;28;20269;-48
2023/07/29 00:49:10;;;;;;;14.43;10.13;;;17.40;99.90;;;;;;5111811;28;20189;-48
2023/07/29 00:51:40;;;;;;;15.13;11.00;;;17.40;99.90;;;;;;5113915;28;20442;-48
2023/07/29 00:54:11;;;;;;;13.33;10.67;;;17.30;99.90;;;;;;5124967;28;20221;-47
2023/07/29 00:56:42;;;;;;;17.37;11.60;;;17.30;99.90;;;;;;5112787;28;20213;-49
2023/07/29 00:59:13;;;;;;;16.17;11.67;;;17.30;99.90;;;;;;5116229;28;20870;-48
2023/07/29 01:01:44;;;;;;;10.90;9.90;;;17.30;99.90;;;;;;5120421;28;20225;-48
2023/07/29 01:04:14;;;;;;;18.33;11.30;;;17.30;99.90;;;;;;5128473;28;20189;-48
2023/07/29 01:07:31;;;;;;;15.80;10.70;;;17.20;99.90;;;;;;5119625;28;20451;-49
2023/07/29 01:10:10;;;;;;;14.70;12.30;;;17.20;99.90;;;;;;5118126;28;20277;-47
2023/07/29 01:12:41;;;;;;;14.20;11.57;;;17.20;99.90;;;;;;5116273;28;20438;-47
2023/07/29 01:15:18;;;;;;;11.80;10.50;;;17.20;99.90;;;;;;5133693;28;20495;-49
2023/07/29 01:17:54;;;;;;;12.73;10.67;;;17.10;99.90;;;;;;5119071;28;20193;-47
2023/07/29 01:20:25;;;;;;;15.27;10.43;;;17.20;99.90;;;;;;5126400;28;20428;-46
2023/07/29 01:22:56;;;;;;;17.00;11.50;;;17.10;99.90;;;;;;5124589;28;20498;-47
2023/07/29 01:25:26;;;;;;;16.07;11.77;;;17.10;99.90;;;;;;5117751;28;20533;-47
2023/07/29 01:27:58;;;;;;;13.40;11.00;;;17.10;99.90;;;;;;5116994;28;20178;-49
2023/07/29 01:30:39;;;;;;;13.07;11.37;;;17.10;99.90;;;;;;5116333;28;20182;-48
2023/07/29 01:33:26;;;;;;;11.40;10.20;;;17.00;99.90;;;;;;5126053;28;20437;-48
2023/07/29 01:36:18;;;;;;;12.87;9.83;;;17.00;99.90;;;;;;5113202;28;20832;-49
2023/07/29 01:38:51;;;;;;;12.40;10.40;;;17.00;99.90;;;;;;5115511;28;20470;-49
2023/07/29 01:41:22;;;;;;;12.27;10.87;;;17.00;99.90;;;;;;5116495;28;22491;-47
2023/07/29 01:43:54;;;;;;;41.43;13.60;;;17.00;99.90;;;;;;5124863;28;20506;-48
2023/07/29 01:46:25;;;;;;;18.13;11.10;;;17.00;99.90;;;;;;5124356;28;20532;-48
2023/07/29 01:48:56;;;;;;;13.10;10.50;;;16.90;99.90;;;;;;5121782;28;20456;-46
2023/07/29 01:51:26;;;;;;;13.83;10.30;;;17.00;99.90;;;;;;5116299;28;20771;-49
2023/07/29 01:53:59;;;;;;;12.37;10.57;;;17.00;99.90;;;;;;5129073;28;20183;-48
2023/07/29 01:56:30;;;;;;;22.70;11.07;;;16.90;99.90;;;;;;5119017;28;20237;-48
2023/07/29 01:59:00;;;;;;;16.20;11.30;;;16.90;99.90;;;;;;5110970;28;20494;-47
2023/07/29 02:01:31;;;;;;;11.70;9.93;;;16.90;99.90;;;;;;5125302;28;21937;-48
2023/07/29 02:04:02;;;;;;;17.33;12.17;;;16.90;99.90;;;;;;5137025;28;20224;-47
2023/07/29 02:06:32;;;;;;;16.00;12.50;;;16.80;99.90;;;;;;5117075;28;20627;-48
2023/07/29 02:09:04;;;;;;;13.23;11.43;;;16.80;99.90;;;;;;5135499;28;20217;-46
2023/07/29 02:11:35;;;;;;;15.90;11.90;;;16.80;99.90;;;;;;5123465;28;20186;-48
2023/07/29 02:14:05;;;;;;;13.97;12.53;;;16.80;99.90;;;;;;5132107;28;20771;-47
2023/07/29 02:16:37;;;;;;;16.17;12.70;;;16.80;99.90;;;;;;5119205;28;20220;-47
2023/07/29 02:19:08;;;;;;;17.40;13.53;;;16.70;99.90;;;;;;5134665;28;20282;-48
2023/07/29 02:21:38;;;;;;;15.70;11.70;;;16.70;99.90;;;;;;5130759;28;20422;-47
2023/07/29 02:24:09;;;;;;;15.67;11.97;;;16.70;99.90;;;;;;5124429;28;20183;-47
2023/07/29 02:26:41;;;;;;;15.33;12.97;;;16.70;99.90;;;;;;5113848;28;20206;-48
2023/07/29 02:29:11;;;;;;;18.07;13.43;;;16.70;99.90;;;;;;5121324;28;20182;-48
2023/07/29 02:31:44;;;;;;;17.73;13.50;;;16.70;99.90;;;;;;5115246;28;20462;-47
2023/07/29 02:34:14;;;;;;;15.23;12.03;;;16.70;99.90;;;;;;5111094;28;20194;-48
2023/07/29 02:36:45;;;;;;;13.60;10.80;;;16.70;99.90;;;;;;5112494;28;20822;-48
2023/07/29 02:39:16;;;;;;;13.43;11.60;;;16.70;99.90;;;;;;5118015;28;20214;-48
2023/07/29 02:41:46;;;;;;;12.63;10.20;;;16.70;99.90;;;;;;5115908;28;20448;-49
2023/07/29 02:44:17;;;;;;;16.33;11.63;;;16.70;99.90;;;;;;5124987;28;20218;-47
2023/07/29 02:46:48;;;;;;;17.53;11.43;;;16.60;99.90;;;;;;5124596;28;20206;-47
2023/07/29 02:49:18;;;;;;;13.93;10.53;;;16.60;99.90;;;;;;5121974;28;20585;-50
2023/07/29 02:51:49;;;;;;;15.90;11.47;;;16.60;99.90;;;;;;5118924;28;20240;-48
2023/07/29 02:54:20;;;;;;;19.60;12.07;;;16.60;99.90;;;;;;5114828;28;20187;-47
2023/07/29 02:56:51;;;;;;;17.90;12.37;;;16.60;99.90;;;;;;5119521;28;20286;-47
2023/07/29 02:59:21;;;;;;;14.37;12.90;;;16.60;99.90;;;;;;5124104;28;20257;-47
2023/07/29 03:01:53;;;;;;;18.03;13.33;;;16.60;99.90;;;;;;5126645;28;20179;-48
2023/07/29 03:04:24;;;;;;;19.30;13.80;;;16.60;99.90;;;;;;5122737;28;20184;-48
2023/07/29 03:06:54;;;;;;;19.50;12.83;;;16.60;99.90;;;;;;5116286;28;20833;-48
2023/07/29 03:09:25;;;;;;;18.37;14.77;;;16.60;99.90;;;;;;5121741;28;20196;-48
2023/07/29 03:11:56;;;;;;;17.23;12.80;;;16.60;99.90;;;;;;5131549;28;20184;-48
2023/07/29 03:14:27;;;;;;;17.77;13.30;;;16.60;99.90;;;;;;5115434;28;20182;-48
2023/07/29 03:17:01;;;;;;;17.93;13.07;;;16.60;99.90;;;;;;5118695;28;20470;-48
2023/07/29 03:19:32;;;;;;;21.43;13.93;;;16.70;99.90;;;;;;5121195;28;20211;-48
2023/07/29 03:22:03;;;;;;;15.13;13.00;;;16.60;99.90;;;;;;5121737;28;20439;-49
2023/07/29 03:24:33;;;;;;;18.63;12.87;;;16.60;99.90;;;;;;5121194;28;20178;-47
2023/07/29 03:27:05;;;;;;;13.47;11.93;;;16.50;99.90;;;;;;5113462;28;20202;-47
2023/07/29 03:29:35;;;;;;;14.40;12.90;;;16.60;99.90;;;;;;5122785;28;20281;-48
2023/07/29 03:32:06;;;;;;;17.53;14.30;;;16.60;99.90;;;;;;5131100;28;20871;-47
2023/07/29 03:34:38;;;;;;;13.30;11.80;;;16.60;99.90;;;;;;5125102;28;20182;-47
2023/07/29 03:37:09;;;;;;;11.83;10.77;;;16.50;99.90;;;;;;5119952;28;20230;-47
2023/07/29 03:39:39;;;;;;;16.23;12.93;;;16.60;99.90;;;;;;5114306;28;20881;-48
2023/07/29 03:42:10;;;;;;;16.23;12.10;;;16.60;99.90;;;;;;5119983;28;20255;-48
2023/07/29 03:44:40;;;;;;;14.03;12.23;;;16.50;99.90;;;;;;5120200;28;20205;-48
2023/07/29 03:47:11;;;;;;;16.80;13.30;;;16.50;99.90;;;;;;5118414;28;20214;-48
2023/07/29 03:49:41;;;;;;;14.00;10.87;;;16.50;99.90;;;;;;5125815;28;20190;-47
2023/07/29 03:52:12;;;;;;;13.70;11.00;;;16.60;99.90;;;;;;5120427;28;20191;-48
2023/07/29 03:54:44;;;;;;;20.43;10.97;;;16.60;99.90;;;;;;5118638;28;20273;-47
2023/07/29 03:57:14;;;;;;;14.00;11.10;;;16.60;99.90;;;;;;5124620;28;20695;-48
2023/07/29 03:59:45;;;;;;;13.00;11.00;;;16.70;99.90;;;;;;5119055;28;20474;-48
2023/07/29 04:02:16;;;;;;;13.47;11.90;;;16.70;99.90;;;;;;5115097;28;20187;-46
2023/07/29 04:04:48;;;;;;;16.90;12.37;;;16.70;99.90;;;;;;5111333;28;20190;-47
2023/07/29 04:07:18;;;;;;;11.93;10.27;;;16.60;99.90;;;;;;5124278;28;20677;-47
2023/07/29 04:09:49;;;;;;;13.43;11.93;;;16.70;99.90;;;;;;5124241;28;20453;-46
2023/07/29 04:12:21;;;;;;;11.93;10.30;;;16.80;99.90;;;;;;5122747;28;20200;-46
2023/07/29 04:14:52;;;;;;;13.73;11.53;;;16.90;99.90;;;;;;5115226;28;20185;-50
2023/07/29 04:17:22;;;;;;;11.83;10.63;;;16.90;99.90;;;;;;5131391;28;21005;-47
2023/07/29 04:19:53;;;;;;;11.00;9.90;;;17.00;99.90;;;;;;5120901;28;20210;-48
2023/07/29 04:22:23;;;;;;;13.80;10.30;;;17.10;99.90;;;;;;5125951;28;20186;-47
2023/07/29 04:24:54;;;;;;;14.63;10.80;;;17.20;99.90;;;;;;5119865;28;20210;-48
2023/07/29 04:27:24;;;;;;;13.10;9.53;;;17.30;99.90;;;;;;5118042;28;20202;-47
2023/07/29 04:29:55;;;;;;;13.60;10.10;;;17.30;99.90;;;;;;5113066;28;20266;-48
2023/07/29 04:32:26;;;;;;;14.63;9.40;;;17.40;99.90;;;;;;5122804;28;20290;-47
2023/07/29 04:34:56;;;;;;;9.63;8.73;;;17.50;99.90;;;;;;5112366;28;20262;-47
2023/07/29 04:37:27;;;;;;;8.53;7.73;;;17.70;99.90;;;;;;5114443;28;20203;-47
2023/07/29 04:39:58;;;;;;;13.43;8.23;;;17.90;99.90;;;;;;5120832;28;20281;-47
2023/07/29 04:42:28;;;;;;;9.00;8.10;;;18.10;99.90;;;;;;5120126;28;20268;-47
2023/07/29 04:44:59;;;;;;;8.50;7.60;;;18.40;99.90;;;;;;5117091;28;20186;-47
2023/07/29 04:47:29;;;;;;;10.23;8.17;;;18.70;99.90;;;;;;5116050;28;20206;-47
2023/07/29 04:50:00;;;;;;;6.53;6.03;;;18.90;99.90;;;;;;5118019;28;20284;-48
2023/07/29 04:52:31;;;;;;;7.27;6.77;;;19.00;99.90;;;;;;5122382;28;20544;-49
2023/07/29 04:55:01;;;;;;;7.57;6.77;;;19.20;99.90;;;;;;5135512;28;20557;-47
2023/07/29 04:57:32;;;;;;;5.67;5.33;;;19.40;99.90;;;;;;5120572;28;20217;-47
2023/07/29 05:00:03;;;;;;;5.50;5.13;;;19.60;99.90;;;;;;5120009;28;20214;-48
2023/07/29 05:02:34;;;;;;;5.70;5.30;;;19.90;99.90;;;;;;5125354;28;20526;-47
2023/07/29 05:05:05;;;;;;;6.50;5.83;;;20.40;99.90;;;;;;5120378;28;20441;-48
2023/07/29 05:07:35;;;;;;;5.20;4.80;;;21.10;99.90;;;;;;5118724;28;20202;-47
2023/07/29 05:10:07;;;;;;;6.43;5.10;;;22.00;99.90;;;;;;5124905;28;20186;-49
2023/07/29 05:12:38;;;;;;;5.00;4.60;;;23.20;99.90;;;;;;5131772;28;20270;-48
2023/07/29 05:15:10;;;;;;;4.70;4.30;;;24.60;99.90;;;;;;5125230;28;20941;-49
2023/07/29 05:17:40;;;;;;;5.80;4.57;;;26.00;99.90;;;;;;5126428;28;20961;-48
2023/07/29 05:20:11;;;;;;;4.10;3.90;;;27.50;99.90;;;;;;5120469;28;20528;-49
2023/07/29 05:22:42;;;;;;;4.50;4.20;;;28.10;99.90;;;;;;5125611;28;20187;-49
2023/07/29 05:25:12;;;;;;;3.93;3.67;;;28.80;99.90;;;;;;5122520;28;20589;-47
2023/07/29 05:27:43;;;;;;;4.80;4.40;;;29.70;96.80;;;;;;5122691;28;20282;-49
2023/07/29 05:30:14;;;;;;;3.40;3.30;;;30.40;93.50;;;;;;5123559;28;20227;-47
2023/07/29 05:32:44;;;;;;;5.10;4.03;;;31.50;89.50;;;;;;5121709;28;20237;-48
2023/07/29 05:35:15;;;;;;;3.53;3.23;;;32.50;77.30;;;;;;5120276;28;20709;-48
2023/07/29 05:37:45;;;;;;;3.60;3.40;;;33.00;72.80;;;;;;5128248;28;20210;-49
2023/07/29 05:40:17;;;;;;;3.50;3.20;;;33.80;62.30;;;;;;5121673;28;20756;-47
2023/07/29 05:42:47;;;;;;;7.80;4.20;;;31.60;65.40;;;;;;5116774;28;20269;-48
2023/07/29 05:45:18;;;;;;;3.03;2.93;;;29.70;71.60;;;;;;5122797;28;20544;-49
2023/07/29 05:47:49;;;;;;;3.70;3.50;;;28.00;78.90;;;;;;5118627;28;20182;-48
2023/07/29 05:50:20;;;;;;;3.57;3.37;;;26.60;86.80;;;;;;5120911;28;20210;-47
2023/07/29 05:52:50;;;;;;;4.30;4.07;;;25.80;93.90;;;;;;5124510;28;20482;-48
2023/07/29 05:55:21;;;;;;;5.30;4.90;;;25.60;96.80;;;;;;5133719;28;20669;-47
2023/07/29 05:57:51;;;;;;;5.03;4.03;;;25.10;99.90;;;;;;5130249;28;20186;-48
2023/07/29 06:00:22;;;;;;;4.23;3.93;;;26.20;99.90;;;;;;5113210;28;20265;-49
2023/07/29 06:02:53;;;;;;;4.17;3.83;;;28.50;98.20;;;;;;5122449;28;20222;-49
2023/07/29 06:05:23;;;;;;;4.63;3.97;;;31.00;86.10;;;;;;5121145;28;20199;-47
2023/07/29 06:07:54;;;;;;;4.53;4.13;;;32.80;73.80;;;;;;5123626;28;20194;-48
2023/07/29 06:10:24;;;;;;;3.07;2.97;;;34.00;62.50;;;;;;5120530;28;20197;-49
2023/07/29 06:12:55;;;;;;;2.83;2.63;;;34.50;58.60;;;;;;5136999;28;20191;-49
2023/07/29 06:15:26;;;;;;;3.37;3.17;;;35.10;55.40;;;;;;5120079;28;20193;-50
2023/07/29 06:17:56;;;;;;;4.93;3.83;;;35.90;54.30;;;;;;5126553;28;20222;-49
2023/07/29 06:20:27;;;;;;;4.95;3.30;;;36.90;50.80;;;;;;5116624;28;20197;-49
2023/07/29 06:22:57;;;;;;;3.42;2.92;;;36.90;49.10;;;;;;5124663;28;20193;-48
2023/07/29 06:25:28;;;;;;;2.83;2.53;;;36.90;47.70;;;;;;5124069;28;20194;-49
2023/07/29 06:27:59;;;;;;;5.70;2.83;;;37.10;48.80;;;;;;5113122;28;20226;-49
2023/07/29 06:30:29;;;;;;;4.85;3.00;;;37.80;46.50;;;;;;5116465;28;20651;-48
2023/07/29 06:33:00;;;;;;;2.60;2.40;;;38.30;44.80;;;;;;5112269;28;20277;-48
2023/07/29 06:35:31;;;;;;;3.15;3.00;;;38.50;43.60;;;;;;5130566;28;20283;-48
2023/07/29 06:38:01;;;;;;;5.82;2.97;;;37.70;45.00;;;;;;5131994;28;20649;-49
2023/07/29 06:40:32;;;;;;;2.60;2.50;;;37.20;45.20;;;;;;5123739;28;20639;-50
2023/07/29 06:43:02;;;;;;;3.03;2.72;;;37.10;45.60;;;;;;5126569;28;20204;-49
2023/07/29 06:45:33;;;;;;;3.05;2.83;;;37.60;44.70;;;;;;5134221;28;20578;-49
2023/07/29 06:48:04;;;;;;;2.17;2.17;;;37.70;44.10;;;;;;5131542;28;20670;-49
2023/07/29 06:50:36;;;;;;;2.25;2.10;;;37.70;44.50;;;;;;5117979;28;20221;-48
2023/07/29 06:53:06;;;;;;;2.55;2.45;;;37.90;43.80;;;;;;5124073;28;20278;-49
2023/07/29 06:55:37;;;;;;;3.15;2.95;;;37.90;44.00;;;;;;5138438;28;20277;-51
2023/07/29 06:58:08;;;;;;;2.28;1.90;;;37.70;43.10;;;;;;5138377;28;20204;-49
2023/07/29 07:00:38;;;;;;;2.58;2.47;;;37.80;44.20;;;;;;5123641;28;20241;-49
2023/07/29 07:03:09;;;;;;;2.15;2.15;;;38.70;43.20;;;;;;5136120;28;20186;-48
2023/07/29 07:05:39;;;;;;;2.92;2.72;;;40.00;41.30;;;;;;5126030;28;20297;-48
2023/07/29 07:08:10;;;;;;;2.55;2.22;;;39.60;40.60;;;;;;5133070;28;20611;-51
2023/07/29 07:10:41;;;;;;;3.35;3.10;;;38.60;41.50;;;;;;5120064;28;20602;-51
2023/07/29 07:13:11;;;;;;;2.17;2.08;;;37.90;42.20;;;;;;5123120;28;20187;-49
2023/07/29 07:15:42;;;;;;;4.10;2.70;;;36.50;44.40;;;;;;5117831;28;20208;-49
2023/07/29 07:18:13;;;;;;;4.13;2.70;;;35.70;46.20;;;;;;5116968;28;20194;-50
2023/07/29 07:20:47;;;;;;;3.20;2.45;;;35.60;47.10;;;;;;5132968;28;20182;-49
2023/07/29 07:23:19;;;;;;;3.00;2.90;;;35.70;46.00;;;;;;5122277;28;20273;-48
2023/07/29 07:25:50;;;;;;;2.10;2.10;;;35.10;47.30;;;;;;5126199;28;20570;-47
2023/07/29 07:28:21;;;;;;;2.83;2.63;;;34.30;48.80;;;;;;5122172;28;20186;-47
2023/07/29 07:30:51;;;;;;;5.45;3.20;;;33.00;50.20;;;;;;5122730;28;20186;-49
2023/07/29 07:33:22;;;;;;;4.53;2.60;;;31.70;52.90;;;;;;5118853;28;20289;-48
2023/07/29 07:35:53;;;;;;;2.80;2.60;;;30.30;55.80;;;;;;5127508;28;20721;-48
2023/07/29 07:38:23;;;;;;;3.37;3.17;;;29.20;58.70;;;;;;5129592;28;20253;-47
2023/07/29 07:40:55;;;;;;;3.63;3.30;;;28.40;60.90;;;;;;5118032;28;20574;-48
2023/07/29 07:43:26;;;;;;;3.47;3.27;;;27.80;63.40;;;;;;5116548;28;20190;-49
2023/07/29 07:45:58;;;;;;;3.73;3.50;;;27.70;66.10;;;;;;5123723;28;20463;-48
2023/07/29 07:48:29;;;;;;;3.50;3.20;;;29.40;62.20;;;;;;5122645;28;20193;-47
2023/07/29 07:51:00;;;;;;;3.53;3.23;;;30.90;58.70;;;;;;5122816;28;20449;-49
2023/07/29 07:53:30;;;;;;;6.00;2.20;;;31.30;56.80;;;;;;5113793;28;20297;-49
2023/07/29 07:56:01;;;;;;;2.80;2.70;;;30.70;57.90;;;;;;5120412;28;20302;-48
2023/07/29 07:58:32;;;;;;;4.13;3.73;;;30.40;58.90;;;;;;5113166;28;20729;-48
2023/07/29 08:01:04;;;;;;;4.30;4.00;;;30.10;60.60;;;;;;5119479;28;20190;-48
2023/07/29 08:03:36;;;;;;;4.60;3.80;;;30.00;59.60;;;;;;5113626;28;20441;-48
2023/07/29 08:06:06;;;;;;;4.20;2.83;;;30.40;58.90;;;;;;5125856;28;20201;-49
2023/07/29 08:08:37;;;;;;;3.53;3.33;;;30.60;59.50;;;;;;5124522;28;20445;-50
2023/07/29 08:11:07;;;;;;;3.10;2.60;;;32.70;56.80;;;;;;5125734;28;20190;-49
2023/07/29 08:13:38;;;;;;;3.05;2.85;;;35.30;52.10;;;;;;5127572;28;20190;-48
2023/07/29 08:16:09;;;;;;;3.40;3.20;;;36.50;48.60;;;;;;5119838;28;20218;-48
2023/07/29 08:18:39;;;;;;;3.55;3.22;;;37.40;45.50;;;;;;5128913;28;20210;-48
2023/07/29 08:21:10;;;;;;;6.43;2.88;;;37.80;45.10;;;;;;5118740;28;20198;-48
2023/07/29 08:23:41;;;;;;;2.50;2.30;;;38.10;43.80;;;;;;5133840;28;20554;-52
2023/07/29 08:26:11;;;;;;;2.42;2.22;;;37.30;44.80;;;;;;5119194;28;20221;-48
2023/07/29 08:28:42;;;;;;;4.05;3.30;;;37.50;44.00;;;;;;5117259;28;20225;-49
2023/07/29 08:31:12;;;;;;;3.17;2.85;;;36.70;45.20;;;;;;5112113;28;20257;-49
2023/07/29 08:33:43;;;;;;;2.70;2.40;;;34.80;47.60;;;;;;5119957;28;20564;-51
2023/07/29 08:36:14;;;;;;;2.67;2.50;;;33.00;51.50;;;;;;5114172;28;20272;-48
2023/07/29 08:38:44;;;;;;;2.90;2.70;;;31.80;54.20;;;;;;5118821;28;20714;-48
2023/07/29 08:41:34;;;;;;;2.60;2.50;;;31.00;55.60;;;;;;5129061;28;20193;-51
2023/07/29 08:44:22;;;;;;;2.87;2.67;;;30.10;57.50;;;;;;5118157;28;20284;-49
2023/07/29 08:46:53;;;;;;;2.83;2.73;;;29.10;59.50;;;;;;5142338;28;20208;-50
2023/07/29 08:49:26;;;;;;;2.97;2.73;;;28.60;61.20;;;;;;5119866;28;20185;-49
2023/07/29 08:51:57;;;;;;;1.90;1.80;;;28.60;62.10;;;;;;5119168;29;20277;-50
2023/07/29 08:54:28;;;;;;;2.30;2.10;;;28.50;62.90;;;;;;5118079;28;20459;-48
2023/07/29 08:57:00;;;;;;;2.53;2.37;;;28.10;63.70;;;;;;5118895;28;20460;-50
2023/07/29 08:59:31;;;;;;;2.33;2.23;;;27.80;65.40;;;;;;5123783;28;20261;-49
2023/07/29 09:02:02;;;;;;;2.87;2.67;;;27.60;65.70;;;;;;5147645;28;20528;-49
2023/07/29 09:04:32;;;;;;;2.87;2.67;;;27.30;68.00;;;;;;5135694;28;21125;-48
2023/07/29 09:07:06;;;;;;;2.23;2.00;;;27.20;68.50;;;;;;5130452;28;20209;-51
2023/07/29 09:09:37;;;;;;;2.30;2.20;;;27.60;68.80;;;;;;5130540;28;20730;-51
2023/07/29 09:12:08;;;;;;;3.43;2.70;;;28.00;68.20;;;;;;5143236;28;20441;-51
2023/07/29 09:14:39;;;;;;;2.47;2.37;;;28.40;67.20;;;;;;5118367;28;20297;-50
2023/07/29 09:17:10;;;;;;;3.33;3.00;;;28.50;66.70;;;;;;5113022;28;20568;-48
2023/07/29 09:19:40;;;;;;;2.43;2.33;;;28.20;67.00;;;;;;5126397;28;20253;-51
2023/07/29 09:22:20;;;;;;;3.20;2.90;;;27.80;68.60;;;;;;5116392;28;20520;-49
2023/07/29 09:24:52;;;;;;;2.60;2.50;;;27.90;68.70;;;;;;5122631;28;20209;-48
2023/07/29 09:27:31;;;;;;;2.30;2.20;;;27.80;69.10;;;;;;5125136;28;20465;-49
2023/07/29 09:30:03;;;;;;;2.13;2.03;;;28.10;69.20;;;;;;5123775;28;20531;-50
2023/07/29 09:32:33;;;;;;;2.00;1.90;;;28.30;68.00;;;;;;5121937;28;20445;-47
2023/07/29 09:35:11;;;;;;;1.97;1.90;;;28.40;67.40;;;;;;5115661;28;20441;-49
2023/07/29 09:37:43;;;;;;;2.13;2.13;;;28.30;68.40;;;;;;5121178;28;20205;-51
2023/07/29 09:40:16;;;;;;;2.40;2.33;;;28.30;68.50;;;;;;5121375;28;20809;-50
2023/07/29 09:42:54;;;;;;;2.40;2.30;;;28.30;69.20;;;;;;5119488;28;20445;-51
2023/07/29 09:45:26;;;;;;;2.27;2.27;;;28.30;69.00;;;;;;5122781;28;20516;-49
2023/07/29 09:47:58;;;;;;;38.50;2.90;;;28.50;69.30;;;;;;5124047;28;20462;-50
2023/07/29 09:50:29;;;;;;;1.87;1.87;;;28.80;68.10;;;;;;5124154;28;20455;-49
2023/07/29 09:53:00;;;;;;;1.70;1.70;;;28.90;67.40;;;;;;5117596;28;20461;-49
2023/07/29 09:55:33;;;;;;;1.83;1.73;;;28.90;67.10;;;;;;5127356;28;20758;-50
2023/07/29 09:58:07;;;;;;;1.90;1.90;;;28.50;68.10;;;;;;5115760;28;20201;-50
2023/07/29 10:00:39;;;;;;;2.83;1.90;;;28.30;69.00;;;;;;5111411;28;20430;-49
2023/07/29 10:03:11;;;;;;;2.37;2.27;;;27.80;70.30;;;;;;5123735;29;20496;-50
2023/07/29 10:05:42;;;;;;;1.90;1.80;;;27.70;71.30;;;;;;5120802;28;20469;-49
2023/07/29 10:08:14;;;;;;;2.07;1.87;;;28.10;71.00;;;;;;5126267;28;20442;-50
2023/07/29 10:10:45;;;;;;;4.50;2.10;;;28.20;69.90;;;;;;5124655;29;20418;-48
2023/07/29 10:13:16;;;;;;;1.97;1.97;;;28.10;71.00;;;;;;5121183;28;20445;-48
2023/07/29 10:15:48;;;;;;;2.10;1.47;;;28.40;69.70;;;;;;5118310;29;20466;-48
2023/07/29 10:18:19;;;;;;;1.40;1.40;;;28.10;70.10;;;;;;5127867;28;20442;-50
2023/07/29 10:20:52;;;;;;;1.43;1.43;;;27.90;70.60;;;;;;5130962;28;20801;-49
2023/07/29 10:23:25;;;;;;;2.00;1.90;;;28.10;71.10;;;;;;5129370;28;20528;-49
2023/07/29 10:26:09;;;;;;;3.80;1.43;;;28.10;71.50;;;;;;5127495;28;20461;-49
2023/07/29 10:28:46;;;;;;;3.93;2.37;;;28.10;71.40;;;;;;5127099;29;20727;-50
2023/07/29 10:31:17;;;;;;;4.20;1.73;;;28.20;71.70;;;;;;5126859;29;20960;-48
2023/07/29 10:33:49;;;;;;;2.23;2.13;;;27.90;71.60;;;;;;5128924;29;20434;-49
2023/07/29 10:36:20;;;;;;;4.20;2.47;;;27.50;73.50;;;;;;5126398;28;20959;-48
2023/07/29 10:38:51;;;;;;;1.87;1.87;;;27.30;74.00;;;;;;5126362;29;20468;-49
2023/07/29 10:41:22;;;;;;;3.27;1.90;;;27.40;75.30;;;;;;5127832;29;20489;-49
2023/07/29 10:43:53;;;;;;;2.60;1.97;;;27.50;75.30;;;;;;5125628;28;20438;-50
2023/07/29 10:46:24;;;;;;;2.20;2.10;;;27.50;75.00;;;;;;5126950;28;20458;-48
2023/07/29 10:48:56;;;;;;;4.10;1.80;;;27.60;75.80;;;;;;5128086;29;20265;-49
2023/07/29 10:51:29;;;;;;;2.17;2.07;;;27.70;75.10;;;;;;5123637;29;20190;-49
2023/07/29 10:54:03;;;;;;;1.40;1.40;;;27.40;75.40;;;;;;5125496;28;20450;-49
2023/07/29 10:56:35;;;;;;;2.13;2.00;;;27.10;76.30;;;;;;5125493;28;20498;-49
2023/07/29 10:59:11;;;;;;;2.40;2.30;;;27.10;76.10;;;;;;5124471;28;20473;-50
2023/07/29 11:01:54;;;;;;;1.60;1.50;;;27.10;76.20;;;;;;5125108;28;20429;-49
2023/07/29 11:04:30;;;;;;;1.43;1.43;;;27.00;76.60;;;;;;5136701;28;20494;-49
2023/07/29 11:07:07;;;;;;;2.10;1.60;;;26.80;77.80;;;;;;5121665;28;20457;-49
2023/07/29 11:09:52;;;;;;;1.53;1.43;;;26.60;78.40;;;;;;5122866;28;20811;-48
2023/07/29 11:12:42;;;;;;;1.40;1.40;;;26.20;79.50;;;;;;5119927;28;20492;-49
2023/07/29 11:15:20;;;;;;;1.77;1.67;;;25.80;81.70;;;;;;5120612;28;20764;-48
2023/07/29 11:17:56;;;;;;;3.27;1.70;;;25.50;83.00;;;;;;5132823;28;20501;-48
2023/07/29 11:20:31;;;;;;;2.90;1.87;;;25.30;85.00;;;;;;5126630;28;20469;-48
2023/07/29 11:23:03;;;;;;;2.70;1.70;;;24.80;94.40;;;;;;5120863;28;21052;-50
2023/07/29 11:25:35;;;;;;;1.10;1.00;;;23.70;99.90;;;;;;5115295;28;21024;-48
2023/07/29 11:28:06;;;;;;;2.60;1.70;;;22.70;99.90;;;;;;5103369;28;20525;-48
2023/07/29 11:30:39;;;;;;;1.90;1.10;;;21.90;99.90;;;;;;5119719;28;20585;-51
2023/07/29 11:33:11;;;;;;;1.70;1.40;;;21.20;99.90;;;;;;5116532;28;20198;-49
2023/07/29 11:35:43;;;;;;;1.97;1.40;;;20.80;99.90;;;;;;5117363;28;20506;-50
2023/07/29 11:38:19;;;;;;;2.70;1.40;;;20.50;99.90;;;;;;5123795;28;20525;-49
2023/07/29 11:41:03;;;;;;;2.40;2.20;;;20.20;99.90;;;;;;5126201;28;20437;-49
2023/07/29 11:43:36;;;;;;;1.23;1.23;;;20.00;99.90;;;;;;5123465;28;20891;-48
2023/07/29 11:46:08;;;;;;;1.80;1.70;;;19.90;99.90;;;;;;5122427;28;20450;-50
2023/07/29 11:48:38;;;;;;;4.07;1.20;;;19.70;99.90;;;;;;5120313;28;20430;-51
2023/07/29 11:51:11;;;;;;;1.40;1.40;;;19.60;99.90;;;;;;5122873;28;20460;-49
2023/07/29 11:53:42;;;;;;;5.40;1.23;;;19.60;99.90;;;;;;5122619;28;20236;-48
2023/07/29 11:56:13;;;;;;;3.30;1.57;;;19.70;99.90;;;;;;5117647;28;20473;-49
2023/07/29 11:58:44;;;;;;;1.33;1.23;;;19.70;99.90;;;;;;5117624;28;20458;-49
2023/07/29 12:01:14;;;;;;;2.30;1.57;;;19.80;99.90;;;;;;5114984;28;20187;-49
2023/07/29 12:03:45;;;;;;;1.43;1.43;;;19.90;99.90;;;;;;5119357;28;20576;-49
2023/07/29 12:06:16;;;;;;;2.60;1.60;;;19.90;99.90;;;;;;5132177;28;20238;-49
2023/07/29 12:08:47;;;;;;;1.47;1.37;;;20.00;99.90;;;;;;5131259;28;20448;-50
2023/07/29 12:11:18;;;;;;;1.33;1.23;;;20.00;99.90;;;;;;5120813;28;20536;-48
2023/07/29 12:13:49;;;;;;;2.70;1.30;;;20.10;99.90;;;;;;5122374;28;20245;-49
2023/07/29 12:16:20;;;;;;;1.20;1.20;;;20.20;99.90;;;;;;5137567;28;20481;-49
2023/07/29 12:18:50;;;;;;;1.60;1.50;;;20.20;99.90;;;;;;5122258;28;20202;-50
2023/07/29 12:21:21;;;;;;;2.63;1.73;;;20.30;99.90;;;;;;5117578;28;20184;-50
2023/07/29 12:23:52;;;;;;;3.93;1.63;;;20.30;99.90;;;;;;5112479;28;20191;-50
2023/07/29 12:26:28;;;;;;;4.87;1.77;;;20.50;99.90;;;;;;5121533;28;20261;-49
2023/07/29 12:28:59;;;;;;;2.97;1.20;;;20.80;99.90;;;;;;5124778;28;20201;-50
2023/07/29 12:31:33;;;;;;;8.03;2.80;;;21.10;99.90;;;;;;5106801;28;20462;-50
2023/07/29 12:34:03;;;;;;;2.57;2.47;;;20.90;99.90;;;;;;5116633;28;20469;-49
2023/07/29 12:36:43;;;;;;;1.80;1.23;;;21.00;99.90;;;;;;5101039;28;21025;-50
2023/07/29 12:39:17;;;;;;;7.03;5.97;;;21.20;99.90;;;;;;5109081;28;20224;-49
2023/07/29 12:41:49;;;;;;;2.30;2.13;;;21.20;99.90;;;;;;5118494;28;21025;-50
2023/07/29 12:44:20;;;;;;;1.70;1.60;;;21.30;99.90;;;;;;5113353;28;20447;-49
2023/07/29 12:46:51;;;;;;;3.63;2.70;;;21.40;99.90;;;;;;5117583;28;20523;-51
2023/07/29 12:49:22;;;;;;;8.83;3.57;;;21.60;99.90;;;;;;5124009;28;20599;-50
2023/07/29 12:51:53;;;;;;;8.07;4.47;;;21.90;99.90;;;;;;5103701;28;20541;-49
2023/07/29 12:54:23;;;;;;;2.60;2.10;;;22.30;99.90;;;;;;5114199;28;20446;-49
2023/07/29 12:56:54;;;;;;;2.80;2.30;;;22.60;99.90;;;;;;5117684;28;20207;-48
2023/07/29 12:59:24;;;;;;;2.17;2.07;;;23.00;99.90;;;;;;5130413;28;20747;-50
2023/07/29 13:01:55;;;;;;;2.10;2.00;;;23.30;99.90;;;;;;5119868;28;20201;-50
2023/07/29 13:04:26;;;;;;;1.90;1.90;;;23.40;99.90;;;;;;5127979;28;20190;-50